createdAt,value
2023-04-23T00:01:08.942Z,9.00
2023-04-23T00:03:37.498Z,9.88
2023-04-23T00:06:06.417Z,10.07
2023-04-23T00:08:33.356Z,9.70
2023-04-23T00:11:01.901Z,10.25
2023-04-23T00:13:29.070Z,10.02
2023-04-23T00:15:56.017Z,10.65
2023-04-23T00:18:22.869Z,10.23
2023-04-23T00:20:50.190Z,11.30
2023-04-23T00:23:17.366Z,10.23
2023-04-23T00:25:44.071Z,11.23
2023-04-23T00:28:10.794Z,11.98
2023-04-23T00:30:38.032Z,11.95
2023-04-23T00:33:04.759Z,11.25
2023-04-23T00:35:31.367Z,12.18
2023-04-23T00:37:58.090Z,12.95
2023-04-23T00:40:24.795Z,15.75
2023-04-23T00:42:53.886Z,13.38
2023-04-23T00:45:24.961Z,12.65
2023-04-23T00:47:53.580Z,14.35
2023-04-23T00:50:21.158Z,14.23
2023-04-23T00:52:51.626Z,13.65
2023-04-23T00:55:21.184Z,16.55
2023-04-23T00:57:48.633Z,13.50
2023-04-23T01:00:15.733Z,15.13
2023-04-23T01:02:44.907Z,15.38
2023-04-23T01:05:12.062Z,15.38
2023-04-23T01:07:39.089Z,15.80
2023-04-23T01:10:06.502Z,13.32
2023-04-23T01:12:35.026Z,15.75
2023-04-23T01:15:03.135Z,15.40
2023-04-23T01:17:31.005Z,15.75
2023-04-23T01:19:58.171Z,17.15
2023-04-23T01:22:24.960Z,14.50
2023-04-23T01:24:52.275Z,13.82
2023-04-23T01:27:20.306Z,14.18
2023-04-23T01:29:48.172Z,14.15
2023-04-23T01:32:15.820Z,14.75
2023-04-23T01:34:43.634Z,13.60
2023-04-23T01:37:11.470Z,14.30
2023-04-23T01:39:38.484Z,16.35
2023-04-23T01:42:07.261Z,15.45
2023-04-23T01:44:34.125Z,15.10
2023-04-23T01:47:00.833Z,16.60
2023-04-23T01:49:27.794Z,16.75
2023-04-23T01:51:54.459Z,15.98
2023-04-23T01:54:21.300Z,16.17
2023-04-23T01:56:48.027Z,16.88
2023-04-23T01:59:14.755Z,15.20
2023-04-23T02:01:46.317Z,16.33
2023-04-23T02:04:14.964Z,13.55
2023-04-23T02:06:44.532Z,15.63
2023-04-23T02:09:11.838Z,15.57
2023-04-23T02:11:38.597Z,14.77
2023-04-23T02:14:06.805Z,12.43
2023-04-23T02:16:34.723Z,9.52
2023-04-23T02:19:01.950Z,8.00
2023-04-23T02:21:29.801Z,7.65
2023-04-23T02:23:56.477Z,6.13
2023-04-23T02:26:25.085Z,6.50
2023-04-23T02:28:51.988Z,4.85
2023-04-23T02:31:20.750Z,5.43
2023-04-23T02:33:47.830Z,3.63
2023-04-23T02:36:14.867Z,2.42
2023-04-23T02:38:42.593Z,2.88
2023-04-23T02:41:09.398Z,2.90
2023-04-23T02:43:36.139Z,3.05
2023-04-23T02:46:08.589Z,2.97
2023-04-23T02:48:40.852Z,3.15
2023-04-23T02:51:10.464Z,2.40
2023-04-23T02:53:37.299Z,2.85
2023-04-23T02:56:04.328Z,3.10
2023-04-23T02:58:31.358Z,2.83
2023-04-23T03:00:58.530Z,2.47
2023-04-23T03:03:27.049Z,2.70
2023-04-23T03:05:55.313Z,2.30
2023-04-23T03:08:22.068Z,2.13
2023-04-23T03:10:49.008Z,2.45
2023-04-23T03:13:15.913Z,1.92
2023-04-23T03:15:42.543Z,2.78
2023-04-23T03:18:09.322Z,2.55
2023-04-23T03:20:36.488Z,2.92
2023-04-23T03:23:06.370Z,2.72
2023-04-23T03:25:34.241Z,2.50
2023-04-23T03:28:01.577Z,2.97
2023-04-23T03:30:29.248Z,2.65
2023-04-23T03:32:57.731Z,3.10
2023-04-23T03:35:26.062Z,3.40
2023-04-23T03:37:52.955Z,4.00
2023-04-23T03:40:20.736Z,3.80
2023-04-23T03:42:48.068Z,3.85
2023-04-23T03:45:16.680Z,5.15
2023-04-23T03:47:43.938Z,6.72
2023-04-23T03:50:13.345Z,6.85
2023-04-23T03:52:40.483Z,8.18
2023-04-23T03:55:08.026Z,9.57
2023-04-23T03:57:35.636Z,10.25
2023-04-23T04:00:02.807Z,11.20
2023-04-23T04:02:29.654Z,12.50
2023-04-23T04:04:56.828Z,13.32
2023-04-23T04:07:23.685Z,14.38
2023-04-23T04:09:50.321Z,14.20
2023-04-23T04:12:16.971Z,15.30
2023-04-23T04:14:43.830Z,13.05
2023-04-23T04:17:10.715Z,12.95
2023-04-23T04:19:37.362Z,13.55
2023-04-23T04:22:03.925Z,14.43
2023-04-23T04:24:32.597Z,13.18
2023-04-23T04:27:02.915Z,13.18
2023-04-23T04:29:29.850Z,13.13
2023-04-23T04:31:56.802Z,13.77
2023-04-23T04:34:24.981Z,14.45
2023-04-23T04:36:54.857Z,14.38
2023-04-23T04:39:21.492Z,14.48
2023-04-23T04:41:48.542Z,14.88
2023-04-23T04:44:16.579Z,14.75
2023-04-23T04:46:43.515Z,13.15
2023-04-23T04:49:11.377Z,14.35
2023-04-23T04:51:39.633Z,13.82
2023-04-23T04:54:07.532Z,14.32
2023-04-23T04:56:35.192Z,14.48
2023-04-23T04:59:02.699Z,15.38
2023-04-23T05:01:29.859Z,12.40
2023-04-23T05:03:57.629Z,11.88
2023-04-23T05:06:24.426Z,12.73
2023-04-23T05:08:51.103Z,11.43
2023-04-23T05:11:20.069Z,12.15
2023-04-23T05:13:47.965Z,12.05
2023-04-23T05:16:14.963Z,12.52
2023-04-23T05:18:42.427Z,11.48
2023-04-23T05:21:09.505Z,11.75
2023-04-23T05:23:36.837Z,12.68
2023-04-23T05:26:03.963Z,12.43
2023-04-23T05:28:31.416Z,13.27
2023-04-23T05:30:58.637Z,12.57
2023-04-23T05:33:30.702Z,13.32
2023-04-23T05:36:00.179Z,14.10
2023-04-23T05:38:27.021Z,15.43
2023-04-23T05:40:53.775Z,13.63
2023-04-23T05:43:20.460Z,13.10
2023-04-23T05:45:47.174Z,14.13
2023-04-23T05:48:14.018Z,14.77
2023-04-23T05:50:40.708Z,13.43
2023-04-23T05:53:07.520Z,13.93
2023-04-23T05:55:34.206Z,14.82
2023-04-23T05:58:00.858Z,15.75
2023-04-23T06:00:27.600Z,14.68
2023-04-23T06:02:54.480Z,14.82
2023-04-23T06:05:21.535Z,16.77
2023-04-23T06:07:48.214Z,16.38
2023-04-23T06:10:15.935Z,18.08
2023-04-23T06:12:42.629Z,17.08
2023-04-23T06:15:10.146Z,14.65
2023-04-23T06:17:37.617Z,16.15
2023-04-23T06:20:05.262Z,14.75
2023-04-23T06:22:32.730Z,14.90
2023-04-23T06:24:59.605Z,15.77
2023-04-23T06:27:27.227Z,14.63
2023-04-23T06:29:54.268Z,14.05
2023-04-23T06:32:21.558Z,13.98
2023-04-23T06:35:00.294Z,14.55
2023-04-23T06:37:29.738Z,12.23
2023-04-23T06:39:56.964Z,12.35
2023-04-23T06:42:23.698Z,11.15
2023-04-23T06:44:52.040Z,12.30
2023-04-23T06:47:19.628Z,11.75
2023-04-23T06:49:46.379Z,11.85
2023-04-23T06:52:13.043Z,11.10
2023-04-23T06:54:39.970Z,11.60
2023-04-23T06:57:06.958Z,12.07
2023-04-23T06:59:33.607Z,11.13
2023-04-23T07:02:00.443Z,11.23
2023-04-23T07:04:27.082Z,11.27
2023-04-23T07:06:55.152Z,10.00
2023-04-23T07:09:21.888Z,10.07
2023-04-23T07:11:48.589Z,10.40
2023-04-23T07:14:15.270Z,11.45
2023-04-23T07:16:41.914Z,10.45
2023-04-23T07:19:08.551Z,10.73
2023-04-23T07:21:35.948Z,10.05
2023-04-23T07:24:08.944Z,10.30
2023-04-23T07:26:36.161Z,10.40
2023-04-23T07:29:04.783Z,9.82
2023-04-23T07:31:31.478Z,8.82
2023-04-23T07:33:58.189Z,9.00
2023-04-23T07:36:27.945Z,9.48
2023-04-23T07:38:54.971Z,8.70
2023-04-23T07:41:21.929Z,8.23
2023-04-23T07:43:49.800Z,7.35
2023-04-23T07:46:16.698Z,6.57
2023-04-23T07:48:43.341Z,6.65
2023-04-23T07:51:10.011Z,7.15
2023-04-23T07:53:36.706Z,6.50
2023-04-23T07:56:03.425Z,6.55
2023-04-23T07:58:30.166Z,8.82
2023-04-23T08:00:57.111Z,6.93
2023-04-23T08:03:24.377Z,7.00
2023-04-23T08:05:51.215Z,7.85
2023-04-23T08:08:19.103Z,7.43
2023-04-23T08:10:46.340Z,8.57
2023-04-23T08:13:13.013Z,8.02
2023-04-23T08:15:39.827Z,7.93
2023-04-23T08:18:06.956Z,7.65
2023-04-23T08:20:34.666Z,6.88
2023-04-23T08:23:01.692Z,7.63
2023-04-23T08:25:30.922Z,8.23
2023-04-23T08:27:57.506Z,8.35
2023-04-23T08:30:24.186Z,7.95
2023-04-23T08:32:55.636Z,8.27
2023-04-23T08:35:23.454Z,8.52
2023-04-23T08:37:50.554Z,6.53
2023-04-23T08:40:17.237Z,7.75
2023-04-23T08:42:49.026Z,7.93
2023-04-23T08:45:15.777Z,6.82
2023-04-23T08:47:45.665Z,5.95
2023-04-23T08:50:14.603Z,5.78
2023-04-23T08:52:48.127Z,5.90
2023-04-23T08:57:42.896Z,6.20
2023-04-23T09:00:11.476Z,6.57
2023-04-23T09:02:43.922Z,6.18
2023-04-23T09:05:10.966Z,5.78
2023-04-23T09:07:39.248Z,5.10
2023-04-23T09:10:07.608Z,10.05
2023-04-23T09:12:40.519Z,5.53
2023-04-23T09:15:11.921Z,5.72
2023-04-23T09:17:41.957Z,5.60
2023-04-23T09:20:11.852Z,4.55
2023-04-23T09:22:47.596Z,5.18
2023-04-23T09:25:19.264Z,5.35
2023-04-23T09:27:47.867Z,5.72
2023-04-23T09:30:15.101Z,4.70
2023-04-23T09:32:46.214Z,4.68
2023-04-23T09:35:19.668Z,4.03
2023-04-23T09:37:49.357Z,4.55
2023-04-23T09:40:23.672Z,4.82
2023-04-23T09:42:54.236Z,4.82
2023-04-23T09:45:21.227Z,4.93
2023-04-23T09:47:52.782Z,5.30
2023-04-23T09:50:32.029Z,6.35
2023-04-23T09:52:58.686Z,5.80
2023-04-23T09:55:35.564Z,5.78
2023-04-23T09:58:04.597Z,5.25
2023-04-23T10:00:36.591Z,5.88
2023-04-23T10:05:40.807Z,4.90
2023-04-23T10:08:17.582Z,5.28
2023-04-23T10:13:16.557Z,6.05
2023-04-23T10:15:46.718Z,5.75
2023-04-23T10:18:15.165Z,6.15
2023-04-23T10:20:42.945Z,7.03
2023-04-23T10:23:11.643Z,5.60
2023-04-23T10:25:40.581Z,4.57
2023-04-23T10:28:11.825Z,5.28
2023-04-23T10:30:38.823Z,4.90
2023-04-23T10:33:15.745Z,4.80
2023-04-23T10:35:50.074Z,4.30
2023-04-23T10:38:17.069Z,3.90
2023-04-23T10:40:46.902Z,4.97
2023-04-23T10:43:13.788Z,5.07
2023-04-23T10:45:40.637Z,4.65
2023-04-23T10:48:08.648Z,4.10
2023-04-23T10:50:37.903Z,4.10
2023-04-23T10:53:18.828Z,4.88
2023-04-23T10:55:45.614Z,4.80
2023-04-23T10:58:12.198Z,4.50
2023-04-23T11:00:41.578Z,4.43
2023-04-23T11:03:34.399Z,4.28
2023-04-23T11:06:03.436Z,4.45
2023-04-23T11:08:33.625Z,4.00
2023-04-23T11:11:02.048Z,3.42
2023-04-23T11:13:30.076Z,4.20
2023-04-23T11:16:16.379Z,3.85
2023-04-23T11:19:04.013Z,4.90
2023-04-23T11:21:59.638Z,4.35
2023-04-23T11:24:37.283Z,4.10
2023-04-23T11:27:11.545Z,4.95
2023-04-23T11:29:40.759Z,4.45
2023-04-23T11:32:12.912Z,4.72
2023-04-23T11:37:11.360Z,4.78
2023-04-23T11:39:39.052Z,5.28
2023-04-23T11:42:10.143Z,6.03
2023-04-23T11:44:39.541Z,4.47
2023-04-23T11:47:11.491Z,4.55
2023-04-23T11:49:39.844Z,4.53
2023-04-23T11:52:07.112Z,4.70
2023-04-23T11:54:34.447Z,5.07
2023-04-23T11:57:03.093Z,4.43
2023-04-23T11:59:30.007Z,4.30
2023-04-23T12:01:58.997Z,4.18
2023-04-23T12:04:27.937Z,4.80
2023-04-23T12:06:55.999Z,4.22
2023-04-23T12:09:28.078Z,4.13
2023-04-23T12:14:28.893Z,4.03
2023-04-23T12:16:57.108Z,3.72
2023-04-23T12:19:29.517Z,3.80
2023-04-23T12:22:00.204Z,4.57
2023-04-23T12:24:31.075Z,4.10
2023-04-23T12:27:00.987Z,3.97
2023-04-23T12:29:30.284Z,4.15
2023-04-23T12:31:59.516Z,3.78
2023-04-23T12:34:27.259Z,3.28
2023-04-23T12:36:57.768Z,3.72
2023-04-23T12:39:31.467Z,4.18
2023-04-23T12:42:09.798Z,3.90
2023-04-23T12:44:38.486Z,3.92
2023-04-23T12:47:09.418Z,3.83
2023-04-23T12:49:38.644Z,3.95
2023-04-23T12:52:08.078Z,3.70
2023-04-23T12:54:37.733Z,4.15
2023-04-23T12:57:06.113Z,3.80
2023-04-23T12:59:33.038Z,3.30
2023-04-23T13:02:03.724Z,3.10
2023-04-23T13:04:32.678Z,3.40
2023-04-23T13:07:00.697Z,3.22
2023-04-23T13:09:28.890Z,3.25
2023-04-23T13:11:55.938Z,3.40
2023-04-23T13:14:23.176Z,3.50
2023-04-23T13:16:50.477Z,3.15
2023-04-23T13:19:17.674Z,3.60
2023-04-23T13:24:16.190Z,3.58
2023-04-23T13:26:42.915Z,2.75
2023-04-23T13:29:09.578Z,3.35
2023-04-23T13:31:36.354Z,3.03
2023-04-23T13:34:03.342Z,3.95
2023-04-23T13:36:30.307Z,2.83
2023-04-23T13:38:57.059Z,3.35
2023-04-23T13:41:23.673Z,3.90
2023-04-23T13:43:50.484Z,3.22
2023-04-23T13:46:17.263Z,2.88
2023-04-23T13:48:43.903Z,3.22
2023-04-23T13:51:21.875Z,2.58
2023-04-23T13:53:58.316Z,2.80
2023-04-23T13:56:26.910Z,2.58
2023-04-23T13:59:02.121Z,2.72
2023-04-23T14:01:47.237Z,2.92
2023-04-23T14:04:14.129Z,2.40
2023-04-23T14:06:40.765Z,3.35
2023-04-23T14:09:08.494Z,2.97
2023-04-23T14:11:35.930Z,2.88
2023-04-23T14:14:02.576Z,2.80
2023-04-23T14:16:29.373Z,2.70
2023-04-23T14:18:56.303Z,2.80
2023-04-23T14:21:22.999Z,3.42
2023-04-23T14:23:55.348Z,3.83
2023-04-23T14:26:47.463Z,3.47
2023-04-23T14:29:22.660Z,3.25
2023-04-23T14:31:49.340Z,3.35
2023-04-23T14:34:16.448Z,2.35
2023-04-23T14:36:43.134Z,2.60
2023-04-23T14:39:09.801Z,3.38
2023-04-23T14:41:37.316Z,4.63
2023-04-23T14:44:04.006Z,3.88
2023-04-23T14:46:31.092Z,3.55
2023-04-23T14:48:57.833Z,3.90
2023-04-23T14:51:24.726Z,4.10
2023-04-23T14:53:52.017Z,3.42
2023-04-23T14:56:19.544Z,3.40
2023-04-23T14:58:46.176Z,3.33
2023-04-23T15:01:12.964Z,2.78
2023-04-23T15:03:40.204Z,2.90
2023-04-23T15:06:07.928Z,3.40
2023-04-23T15:08:34.627Z,3.90
2023-04-23T15:11:01.261Z,3.17
2023-04-23T15:13:49.191Z,3.50
2023-04-23T15:16:47.552Z,3.13
2023-04-23T15:19:14.773Z,8.35
2023-04-23T15:21:43.093Z,7.07
2023-04-23T15:24:10.025Z,4.40
2023-04-23T15:26:37.713Z,4.35
2023-04-23T15:29:06.114Z,4.72
2023-04-23T15:31:32.907Z,4.50
2023-04-23T15:33:59.567Z,5.65
2023-04-23T15:36:26.259Z,5.00
2023-04-23T15:38:52.996Z,3.88
2023-04-23T15:41:19.655Z,3.88
2023-04-23T15:43:47.433Z,2.63
2023-04-23T15:46:14.112Z,2.58
2023-04-23T15:48:40.848Z,2.45
2023-04-23T15:51:07.726Z,3.00
2023-04-23T15:53:34.430Z,3.13
2023-04-23T15:56:01.151Z,3.47
2023-04-23T15:58:27.887Z,4.07
2023-04-23T16:00:54.973Z,3.75
2023-04-23T16:03:21.836Z,4.47
2023-04-23T16:05:51.022Z,3.90
2023-04-23T16:08:17.722Z,4.05
2023-04-23T16:10:44.776Z,3.33
2023-04-23T16:13:11.465Z,3.92
2023-04-23T16:15:38.356Z,3.72
2023-04-23T16:18:06.210Z,4.13
2023-04-23T16:20:33.415Z,3.80
2023-04-23T16:23:00.602Z,3.90
2023-04-23T16:25:27.288Z,4.25
2023-04-23T16:27:53.974Z,3.85
2023-04-23T16:30:21.179Z,5.55
2023-04-23T16:32:47.822Z,3.15
2023-04-23T16:35:14.560Z,3.33
2023-04-23T16:37:41.349Z,4.60
2023-04-23T16:40:08.547Z,4.43
2023-04-23T16:42:35.405Z,4.10
2023-04-23T16:45:03.053Z,3.72
2023-04-23T16:47:29.777Z,4.00
2023-04-23T16:49:56.612Z,5.38
2023-04-23T16:52:23.315Z,5.18
2023-04-23T16:54:50.063Z,4.70
2023-04-23T16:57:17.714Z,4.45
2023-04-23T16:59:44.455Z,5.80
2023-04-23T17:02:14.222Z,4.95
2023-04-23T17:04:41.124Z,10.00
2023-04-23T17:07:08.063Z,8.48
2023-04-23T17:09:34.985Z,7.80
2023-04-23T17:12:02.638Z,7.35
2023-04-23T17:14:29.359Z,5.47
2023-04-23T17:16:56.384Z,6.45
2023-04-23T17:19:23.008Z,5.40
2023-04-23T17:21:49.862Z,5.15
2023-04-23T17:24:16.692Z,5.20
2023-04-23T17:26:43.885Z,5.47
2023-04-23T17:29:13.836Z,5.78
2023-04-23T17:31:40.756Z,4.53
2023-04-23T17:34:09.568Z,4.90
2023-04-23T17:36:36.359Z,4.93
2023-04-23T17:39:03.171Z,5.78
2023-04-23T17:41:29.863Z,5.82
2023-04-23T17:43:56.473Z,6.25
2023-04-23T17:46:23.186Z,6.68
2023-04-23T17:48:50.117Z,6.20
2023-04-23T17:51:16.874Z,6.85
2023-04-23T17:53:48.332Z,5.90
2023-04-23T17:56:15.765Z,6.22
2023-04-23T17:58:42.373Z,6.03
2023-04-23T18:01:09.990Z,6.07
2023-04-23T18:03:37.399Z,5.80
2023-04-23T18:06:04.594Z,4.88
2023-04-23T18:08:31.327Z,4.85
2023-04-23T18:10:58.381Z,4.80
2023-04-23T18:13:25.102Z,4.25
2023-04-23T18:15:52.077Z,5.18
2023-04-23T18:18:19.488Z,6.38
2023-04-23T18:20:47.556Z,5.40
2023-04-23T18:23:14.470Z,5.68
2023-04-23T18:25:42.120Z,5.32
2023-04-23T18:28:08.876Z,5.18
2023-04-23T18:30:38.204Z,6.28
2023-04-23T18:33:19.397Z,6.30
2023-04-23T18:35:49.541Z,6.95
2023-04-23T18:38:34.789Z,6.43
2023-04-23T18:41:04.501Z,5.85
2023-04-23T18:43:34.595Z,6.28
2023-04-23T18:46:02.124Z,5.20
2023-04-23T18:48:34.651Z,5.13
2023-04-23T18:51:24.994Z,5.50
2023-04-23T18:53:51.829Z,6.22
2023-04-23T18:56:18.465Z,5.45
2023-04-23T18:58:45.043Z,5.43
2023-04-23T19:01:11.913Z,5.32
2023-04-23T19:03:38.888Z,4.65
2023-04-23T19:06:07.926Z,5.10
2023-04-23T19:08:35.591Z,4.53
2023-04-23T19:11:03.627Z,4.75
2023-04-23T19:13:30.325Z,4.60
2023-04-23T19:15:57.172Z,5.22
2023-04-23T19:18:24.209Z,4.63
2023-04-23T19:20:51.704Z,4.55
2023-04-23T19:23:19.219Z,4.95
2023-04-23T19:25:45.967Z,5.18
2023-04-23T19:28:13.200Z,5.50
2023-04-23T19:30:40.061Z,5.00
2023-04-23T19:33:06.714Z,4.72
2023-04-23T19:35:33.643Z,5.00
2023-04-23T19:38:00.249Z,5.22
2023-04-23T19:40:26.924Z,5.35
2023-04-23T19:42:53.527Z,5.18
2023-04-23T19:45:20.204Z,5.93
2023-04-23T19:47:46.875Z,5.85
2023-04-23T19:50:14.070Z,4.95
2023-04-23T19:52:41.347Z,5.80
2023-04-23T19:55:09.682Z,4.55
2023-04-23T19:57:36.759Z,5.05
2023-04-23T20:00:13.399Z,6.40
2023-04-23T20:02:43.458Z,5.30
2023-04-23T20:05:10.691Z,5.50
2023-04-23T20:07:38.978Z,4.95
2023-04-23T20:10:06.188Z,4.72
2023-04-23T20:12:33.894Z,4.60
2023-04-23T20:15:00.524Z,4.50
2023-04-23T20:17:27.444Z,4.88
2023-04-23T20:19:55.150Z,4.53
2023-04-23T20:22:22.152Z,5.22
2023-04-23T20:24:49.003Z,4.72
2023-04-23T20:27:16.078Z,4.55
2023-04-23T20:29:42.981Z,4.88
2023-04-23T20:32:09.871Z,5.13
2023-04-23T20:34:36.555Z,5.13
2023-04-23T20:37:03.326Z,5.20
2023-04-23T20:39:29.981Z,4.65
2023-04-23T20:41:57.827Z,3.95
2023-04-23T20:44:25.413Z,4.90
2023-04-23T20:46:52.312Z,6.38
2023-04-23T20:49:18.993Z,4.90
2023-04-23T20:51:46.710Z,4.43
2023-04-23T20:54:13.446Z,5.57
2023-04-23T20:56:40.233Z,4.97
2023-04-23T20:59:09.164Z,5.53
2023-04-23T21:01:36.998Z,5.13
2023-04-23T21:04:04.978Z,5.00
2023-04-23T21:06:31.737Z,5.60
2023-04-23T21:08:58.536Z,5.63
2023-04-23T21:11:26.244Z,5.90
2023-04-23T21:13:53.493Z,5.05
2023-04-23T21:16:20.441Z,5.55
2023-04-23T21:18:47.075Z,5.05
2023-04-23T21:21:13.763Z,5.10
2023-04-23T21:23:40.523Z,5.45
2023-04-23T21:26:08.684Z,5.85
2023-04-23T21:28:37.058Z,5.30
2023-04-23T21:31:14.550Z,5.88
2023-04-23T21:33:41.299Z,5.45
2023-04-23T21:36:08.445Z,5.43
2023-04-23T21:38:35.175Z,7.35
2023-04-23T21:41:02.579Z,5.85
2023-04-23T21:43:29.806Z,6.30
2023-04-23T21:45:56.483Z,6.97
2023-04-23T21:48:23.529Z,6.22
2023-04-23T21:50:51.758Z,6.60
2023-04-23T21:53:18.644Z,6.30
2023-04-23T21:55:45.326Z,8.30
2023-04-23T21:58:17.197Z,7.20
2023-04-23T22:00:45.343Z,7.72
2023-04-23T22:03:12.668Z,6.78
2023-04-23T22:05:43.475Z,7.97
2023-04-23T22:08:10.197Z,6.10
2023-04-23T22:10:42.890Z,6.50
2023-04-23T22:13:10.213Z,6.55
2023-04-23T22:15:36.960Z,7.85
2023-04-23T22:18:03.847Z,7.85
2023-04-23T22:20:31.945Z,6.78
2023-04-23T22:22:58.662Z,7.47
2023-04-23T22:25:26.260Z,7.13
2023-04-23T22:27:52.951Z,8.10
2023-04-23T22:30:20.026Z,6.72
2023-04-23T22:32:46.956Z,6.72
2023-04-23T22:35:13.731Z,6.97
2023-04-23T22:37:40.476Z,7.80
2023-04-23T22:40:08.321Z,7.13
2023-04-23T22:42:35.061Z,6.57
2023-04-23T22:45:01.969Z,7.72
2023-04-23T22:47:28.741Z,7.85
2023-04-23T22:49:55.489Z,7.47
2023-04-23T22:52:23.349Z,7.88
2023-04-23T22:54:50.167Z,7.45
2023-04-23T22:57:17.350Z,8.10
2023-04-23T22:59:44.412Z,7.45
2023-04-23T23:02:11.303Z,8.15
2023-04-23T23:04:39.134Z,8.75
2023-04-23T23:07:06.411Z,8.15
2023-04-23T23:09:34.413Z,7.95
2023-04-23T23:12:05.110Z,7.80
2023-04-23T23:14:33.336Z,8.35
2023-04-23T23:17:00.108Z,7.93
2023-04-23T23:19:31.053Z,7.78
2023-04-23T23:21:57.847Z,9.32
2023-04-23T23:24:24.481Z,10.07
2023-04-23T23:26:51.219Z,9.40
2023-04-23T23:29:18.644Z,9.45
2023-04-23T23:31:46.734Z,10.60
2023-04-23T23:34:13.641Z,9.55
2023-04-23T23:36:41.203Z,9.07
2023-04-23T23:39:07.960Z,9.45
2023-04-23T23:41:34.582Z,8.82
2023-04-23T23:44:01.215Z,9.82
2023-04-23T23:46:28.117Z,9.00
2023-04-23T23:48:55.066Z,9.88
2023-04-23T23:51:21.792Z,8.25
2023-04-23T23:53:48.817Z,9.02
2023-04-23T23:56:15.447Z,9.27
2023-04-23T23:58:42.076Z,8.65
